Time;durP1;ratioP1;P1;durP2;ratioP2;P2;SDS_P1;SDS_P2;PMS_P1;PMS_P2;Temp;Humidity;BMP_temperature;BMP_pressure;BME280_temperature;BME280_humidity;BME280_pressure;Samples;Min_cycle;Max_cycle;Signal;HPM_P1;HPM_P2
2023/09/29 00:00:53;;;;;;;19.67;4.85;;;16.00;99.90;;;;;;5009582;28;20052;-69
2023/09/29 00:03:19;;;;;;;18.73;4.82;;;16.00;99.90;;;;;;5010172;28;20106;-69
2023/09/29 00:05:45;;;;;;;19.30;3.90;;;16.00;99.90;;;;;;5024220;28;20045;-69
2023/09/29 00:08:22;;;;;;;20.83;4.55;;;16.10;99.90;;;;;;5007251;28;20653;-69
2023/09/29 00:10:50;;;;;;;22.58;4.95;;;16.10;99.90;;;;;;5026321;28;20402;-70
2023/09/29 00:13:16;;;;;;;19.13;4.70;;;16.00;99.90;;;;;;5009384;28;20041;-70
2023/09/29 00:15:43;;;;;;;22.40;5.05;;;16.10;99.90;;;;;;5009212;28;20132;-70
2023/09/29 00:18:09;;;;;;;19.83;4.38;;;16.10;99.90;;;;;;5000181;28;20045;-70
2023/09/29 00:20:35;;;;;;;24.05;5.10;;;16.10;99.90;;;;;;5008683;28;20049;-70
2023/09/29 00:23:01;;;;;;;21.60;4.47;;;16.10;99.90;;;;;;5022581;28;20045;-69
2023/09/29 00:25:27;;;;;;;18.75;4.30;;;16.10;99.90;;;;;;5017641;28;20052;-70
2023/09/29 00:27:55;;;;;;;20.60;4.63;;;16.10;99.90;;;;;;5020142;28;20045;-70
2023/09/29 00:30:20;;;;;;;19.65;4.35;;;16.10;99.90;;;;;;5006265;28;22180;-70
2023/09/29 00:32:51;;;;;;;20.83;4.60;;;16.10;99.90;;;;;;5015555;28;20120;-69
2023/09/29 00:35:24;;;;;;;18.92;5.22;;;16.10;99.90;;;;;;4996780;28;20052;-70
2023/09/29 00:37:53;;;;;;;18.65;4.40;;;16.10;99.90;;;;;;4991952;28;20049;-71
2023/09/29 00:40:20;;;;;;;17.35;3.47;;;16.10;99.90;;;;;;5016430;28;20107;-70
2023/09/29 00:42:54;;;;;;;21.73;4.30;;;16.10;99.90;;;;;;5005098;28;20375;-69
2023/09/29 00:45:26;;;;;;;18.08;4.47;;;16.10;99.90;;;;;;5023415;28;20076;-69
2023/09/29 00:47:57;;;;;;;16.45;4.28;;;16.10;99.90;;;;;;5006787;28;20049;-69
2023/09/29 00:50:26;;;;;;;18.55;3.75;;;16.10;99.90;;;;;;5024684;28;20049;-69
2023/09/29 00:52:54;;;;;;;16.85;4.07;;;16.10;99.90;;;;;;5024064;28;20041;-69
2023/09/29 00:55:26;;;;;;;19.05;4.28;;;16.10;99.90;;;;;;5024280;28;20444;-69
2023/09/29 00:57:52;;;;;;;24.33;4.28;;;16.10;99.90;;;;;;5021653;28;20106;-70
2023/09/29 01:00:36;;;;;;;24.42;4.82;;;16.10;99.90;;;;;;5022654;28;20449;-71
2023/09/29 01:03:08;;;;;;;21.23;4.68;;;16.10;99.90;;;;;;5005323;28;20104;-69
2023/09/29 01:05:46;;;;;;;25.95;4.13;;;16.00;99.90;;;;;;5020087;28;20152;-69
2023/09/29 01:08:15;;;;;;;15.82;3.75;;;16.10;99.90;;;;;;5022863;28;20044;-70
2023/09/29 01:10:41;;;;;;;18.50;3.97;;;16.10;99.90;;;;;;5022223;28;20421;-70
2023/09/29 01:13:08;;;;;;;15.57;4.53;;;16.10;99.90;;;;;;4999303;28;20487;-69
2023/09/29 01:15:34;;;;;;;20.52;4.13;;;16.00;99.90;;;;;;5006724;28;20041;-69
2023/09/29 01:18:02;;;;;;;20.42;4.22;;;16.00;99.90;;;;;;4991208;28;20057;-70
2023/09/29 01:20:31;;;;;;;21.23;4.57;;;16.10;99.90;;;;;;4994870;28;20052;-70
2023/09/29 01:23:03;;;;;;;18.90;4.18;;;16.10;99.90;;;;;;5016175;28;20160;-70
2023/09/29 01:25:29;;;;;;;20.20;4.32;;;16.00;99.90;;;;;;4994350;28;20406;-69
2023/09/29 01:27:56;;;;;;;24.60;4.63;;;16.10;99.90;;;;;;5011888;28;20059;-69
2023/09/29 01:30:22;;;;;;;15.43;4.72;;;16.00;99.90;;;;;;5007770;28;20062;-69
2023/09/29 01:32:50;;;;;;;16.13;4.43;;;16.00;99.90;;;;;;5026366;28;20042;-70
2023/09/29 01:35:23;;;;;;;19.38;4.75;;;16.00;99.90;;;;;;5007455;28;20146;-70
2023/09/29 01:37:50;;;;;;;19.75;4.50;;;16.00;99.90;;;;;;5023652;28;20458;-70
2023/09/29 01:40:23;;;;;;;17.20;4.20;;;16.00;99.90;;;;;;5022293;28;20053;-70
2023/09/29 01:42:50;;;;;;;20.27;4.57;;;16.00;99.90;;;;;;5027351;28;20048;-69
2023/09/29 01:45:16;;;;;;;19.92;4.45;;;16.00;99.90;;;;;;5009256;28;20050;-70
2023/09/29 01:47:46;;;;;;;17.83;3.88;;;16.00;99.90;;;;;;5014167;28;20049;-70
2023/09/29 01:50:16;;;;;;;16.90;4.38;;;16.00;99.90;;;;;;5022264;28;20408;-69
2023/09/29 01:52:44;;;;;;;14.90;4.43;;;16.00;99.90;;;;;;5028150;28;20061;-70
2023/09/29 01:55:19;;;;;;;17.20;4.28;;;16.00;99.90;;;;;;5029196;28;20084;-70
2023/09/29 01:57:47;;;;;;;17.08;4.35;;;16.00;99.90;;;;;;5005760;28;20510;-70
2023/09/29 02:00:19;;;;;;;23.73;4.40;;;16.00;99.90;;;;;;5028598;28;20080;-69
2023/09/29 02:02:48;;;;;;;19.25;4.47;;;16.00;99.90;;;;;;5034067;28;20053;-69
2023/09/29 02:05:16;;;;;;;18.83;4.90;;;16.00;99.90;;;;;;5017843;28;20048;-69
2023/09/29 02:07:43;;;;;;;17.02;3.78;;;16.00;99.90;;;;;;5032177;28;20116;-69
2023/09/29 02:10:09;;;;;;;24.27;4.32;;;16.00;99.90;;;;;;5012083;28;20045;-69
2023/09/29 02:12:46;;;;;;;15.93;4.25;;;16.00;99.90;;;;;;5035542;28;20042;-70
2023/09/29 02:15:16;;;;;;;17.80;4.32;;;16.00;99.90;;;;;;5007487;28;20045;-70
2023/09/29 02:17:45;;;;;;;17.30;4.00;;;16.00;99.90;;;;;;5017050;28;20053;-70
2023/09/29 02:20:18;;;;;;;15.73;3.92;;;16.00;99.90;;;;;;5029384;28;20413;-69
2023/09/29 02:22:45;;;;;;;16.58;4.47;;;16.00;99.90;;;;;;5011441;28;20410;-69
2023/09/29 02:25:11;;;;;;;14.43;3.58;;;16.00;99.90;;;;;;5026712;28;20053;-70
2023/09/29 02:27:37;;;;;;;22.08;5.03;;;16.00;99.90;;;;;;5008493;28;20049;-70
2023/09/29 02:30:04;;;;;;;19.33;4.43;;;16.00;99.90;;;;;;5006909;28;20056;-71
2023/09/29 02:32:29;;;;;;;18.55;4.15;;;16.00;99.90;;;;;;5027363;28;20174;-70
2023/09/29 02:34:55;;;;;;;15.90;3.67;;;16.00;99.90;;;;;;5023334;28;20124;-70
2023/09/29 02:37:21;;;;;;;16.38;4.20;;;15.90;99.90;;;;;;5041427;28;20054;-70
2023/09/29 02:39:47;;;;;;;19.00;4.57;;;16.00;99.90;;;;;;5027928;28;20068;-70
2023/09/29 02:42:13;;;;;;;21.02;3.90;;;16.00;99.90;;;;;;5007730;28;20069;-69
2023/09/29 02:44:39;;;;;;;20.75;4.38;;;16.00;99.90;;;;;;5008406;28;20068;-70
2023/09/29 02:47:06;;;;;;;14.48;3.67;;;15.90;99.90;;;;;;5028739;28;20410;-70
2023/09/29 02:49:33;;;;;;;19.77;4.50;;;16.00;99.90;;;;;;5013610;28;20567;-69
2023/09/29 02:52:03;;;;;;;20.50;4.40;;;15.90;99.90;;;;;;5012415;28;20076;-69
2023/09/29 02:54:30;;;;;;;15.90;4.45;;;15.90;99.90;;;;;;5007411;28;20111;-70
2023/09/29 02:56:56;;;;;;;19.40;4.50;;;15.90;99.90;;;;;;5018970;28;20563;-69
2023/09/29 02:59:24;;;;;;;16.30;4.82;;;15.90;99.90;;;;;;5030985;28;20045;-69
2023/09/29 03:01:50;;;;;;;16.35;4.38;;;15.90;99.90;;;;;;5010673;28;20775;-70
2023/09/29 03:04:16;;;;;;;21.85;4.45;;;15.90;99.90;;;;;;5015066;28;20085;-69
2023/09/29 03:06:45;;;;;;;21.02;4.32;;;15.90;99.90;;;;;;5011319;28;20076;-70
2023/09/29 03:09:13;;;;;;;18.65;4.60;;;15.90;99.90;;;;;;5010641;28;20059;-70
2023/09/29 03:11:43;;;;;;;21.08;4.03;;;15.90;99.90;;;;;;5026578;28;20426;-69
2023/09/29 03:14:09;;;;;;;18.13;5.15;;;15.90;99.90;;;;;;5028665;28;20498;-70
2023/09/29 03:16:36;;;;;;;20.10;4.28;;;15.90;99.90;;;;;;5027069;28;20056;-70
2023/09/29 03:19:03;;;;;;;20.90;4.60;;;15.90;99.90;;;;;;5013733;28;20045;-70
2023/09/29 03:21:29;;;;;;;14.63;4.50;;;15.90;99.90;;;;;;5026198;28;20056;-70
2023/09/29 03:23:55;;;;;;;20.17;5.38;;;15.90;99.90;;;;;;5011426;28;20061;-70
2023/09/29 03:26:23;;;;;;;14.48;3.63;;;15.90;99.90;;;;;;5025885;28;20057;-69
2023/09/29 03:28:54;;;;;;;17.33;4.07;;;15.90;99.90;;;;;;5016335;28;20125;-69
2023/09/29 03:31:22;;;;;;;;;;;15.90;99.90;;;;;;5020409;28;20057;-69
2023/09/29 03:33:48;;;;;;;19.80;4.10;;;15.80;99.90;;;;;;5023726;28;20457;-70
2023/09/29 03:36:14;;;;;;;16.77;4.35;;;15.90;99.90;;;;;;5020653;28;20481;-70
2023/09/29 03:38:41;;;;;;;17.25;4.10;;;15.90;99.90;;;;;;5008197;28;20049;-70
2023/09/29 03:41:09;;;;;;;19.83;4.95;;;15.90;99.90;;;;;;5019503;28;20504;-70
2023/09/29 03:43:35;;;;;;;16.38;3.58;;;15.90;99.90;;;;;;5026621;28;20061;-70
2023/09/29 03:46:00;;;;;;;15.75;3.90;;;15.90;99.90;;;;;;5025921;28;20041;-70
2023/09/29 03:48:26;;;;;;;19.13;4.00;;;15.90;99.90;;;;;;5026963;28;20120;-70
2023/09/29 03:50:53;;;;;;;19.55;4.40;;;15.90;99.90;;;;;;5010206;28;20081;-69
2023/09/29 03:53:19;;;;;;;18.85;4.60;;;15.90;99.90;;;;;;5025939;28;20356;-70
2023/09/29 03:55:45;;;;;;;19.77;3.97;;;16.00;99.90;;;;;;5018423;28;20052;-71
2023/09/29 03:58:11;;;;;;;20.73;3.92;;;15.90;99.90;;;;;;5027110;28;20481;-66
2023/09/29 04:00:37;;;;;;;15.98;4.20;;;15.90;99.90;;;;;;5009049;28;20045;-70
2023/09/29 04:03:02;;;;;;;17.92;3.72;;;16.00;99.90;;;;;;5026859;28;20057;-69
2023/09/29 04:05:28;;;;;;;17.40;4.05;;;16.00;99.90;;;;;;5026471;28;20124;-69
2023/09/29 04:07:54;;;;;;;23.17;4.13;;;16.00;99.90;;;;;;5028731;28;20464;-69
2023/09/29 04:10:20;;;;;;;16.08;4.03;;;16.00;99.90;;;;;;5026239;28;20045;-69
2023/09/29 04:12:47;;;;;;;18.33;4.95;;;16.00;99.90;;;;;;5026662;28;20218;-69
2023/09/29 04:15:13;;;;;;;14.48;4.47;;;16.10;99.90;;;;;;5017749;28;20064;-70
2023/09/29 04:17:39;;;;;;;16.98;4.30;;;16.00;99.90;;;;;;5014580;28;20049;-69
2023/09/29 04:20:06;;;;;;;15.45;3.88;;;16.10;99.90;;;;;;5017207;28;20053;-69
2023/09/29 04:22:33;;;;;;;20.92;4.10;;;16.10;99.90;;;;;;5016963;28;20045;-69
2023/09/29 04:24:59;;;;;;;15.35;4.28;;;16.10;99.90;;;;;;4998749;28;20561;-70
2023/09/29 04:27:25;;;;;;;19.73;4.15;;;16.20;99.90;;;;;;5015958;28;20164;-70
2023/09/29 04:29:54;;;;;;;19.73;4.38;;;16.10;99.90;;;;;;5015518;28;20041;-70
2023/09/29 04:32:19;;;;;;;12.10;3.80;;;16.20;99.90;;;;;;5007076;28;20711;-70
2023/09/29 04:34:45;;;;;;;23.45;4.50;;;16.20;99.90;;;;;;5016517;28;20038;-70
2023/09/29 04:37:11;;;;;;;16.42;3.65;;;16.20;99.90;;;;;;5001025;28;20057;-69
2023/09/29 04:39:37;;;;;;;17.60;4.00;;;16.20;99.90;;;;;;4997390;28;20132;-69
2023/09/29 04:42:06;;;;;;;13.98;3.92;;;16.20;99.90;;;;;;5007554;28;20068;-69
2023/09/29 04:44:32;;;;;;;17.00;5.93;;;16.30;99.90;;;;;;4998372;28;20045;-69
2023/09/29 04:46:58;;;;;;;16.63;3.80;;;16.30;99.90;;;;;;5004427;28;20128;-69
2023/09/29 04:49:24;;;;;;;18.75;4.45;;;16.30;99.90;;;;;;5015096;28;20104;-70
2023/09/29 04:51:50;;;;;;;16.05;4.05;;;16.30;99.90;;;;;;5006511;28;20049;-69
2023/09/29 04:54:16;;;;;;;18.65;3.83;;;16.30;99.90;;;;;;5013598;28;20063;-70
2023/09/29 04:56:41;;;;;;;14.30;4.15;;;16.30;99.90;;;;;;5018718;28;20087;-69
2023/09/29 04:59:08;;;;;;;16.10;4.45;;;16.30;99.90;;;;;;5021992;28;20053;-70
2023/09/29 05:01:36;;;;;;;17.35;3.75;;;16.30;99.90;;;;;;4998705;28;20107;-69
2023/09/29 05:04:02;;;;;;;20.55;4.03;;;16.30;99.90;;;;;;5014293;28;20111;-68
2023/09/29 05:06:29;;;;;;;15.75;4.13;;;16.30;99.90;;;;;;5021202;28;20048;-69
2023/09/29 05:08:55;;;;;;;18.30;3.92;;;16.30;99.90;;;;;;5016979;28;20049;-69
2023/09/29 05:11:25;;;;;;;16.75;4.10;;;16.40;99.90;;;;;;5002597;28;20525;-69
2023/09/29 05:13:52;;;;;;;14.03;4.50;;;16.40;99.90;;;;;;5016942;28;20127;-69
2023/09/29 05:16:18;;;;;;;16.50;4.63;;;16.40;99.90;;;;;;5017376;28;20045;-69
2023/09/29 05:18:44;;;;;;;19.73;4.38;;;16.40;99.90;;;;;;5019433;28;20417;-69
2023/09/29 05:21:11;;;;;;;17.40;3.97;;;16.40;99.90;;;;;;5019614;28;20045;-69
2023/09/29 05:23:40;;;;;;;15.27;4.28;;;16.40;99.90;;;;;;5017163;28;20167;-69
2023/09/29 05:26:07;;;;;;;19.60;4.20;;;16.40;99.90;;;;;;5001100;28;20058;-69
2023/09/29 05:28:39;;;;;;;16.48;3.92;;;16.40;99.90;;;;;;5002938;28;20128;-69
2023/09/29 05:31:05;;;;;;;18.40;4.85;;;16.40;99.90;;;;;;5016930;28;20041;-69
2023/09/29 05:33:31;;;;;;;20.90;4.47;;;16.40;99.90;;;;;;5000693;28;20048;-69
2023/09/29 05:35:58;;;;;;;14.00;4.70;;;16.40;99.90;;;;;;4991717;28;20345;-68
2023/09/29 05:38:24;;;;;;;19.05;4.68;;;16.40;99.90;;;;;;5010640;28;20970;-69
2023/09/29 05:40:51;;;;;;;17.42;4.82;;;16.40;99.90;;;;;;4996903;28;20045;-69
2023/09/29 05:43:17;;;;;;;16.20;4.43;;;16.40;99.90;;;;;;4994256;28;20049;-69
2023/09/29 05:45:45;;;;;;;13.70;4.10;;;16.40;99.90;;;;;;4997448;28;20398;-69
2023/09/29 05:48:10;;;;;;;15.32;4.30;;;16.40;99.90;;;;;;5015122;28;20081;-69
2023/09/29 05:50:36;;;;;;;13.77;3.92;;;16.40;99.90;;;;;;4995969;28;20132;-69
2023/09/29 05:53:03;;;;;;;18.50;4.22;;;16.40;99.90;;;;;;5014729;28;20407;-69
2023/09/29 05:55:29;;;;;;;12.30;3.95;;;16.40;99.90;;;;;;5027593;28;20060;-70
2023/09/29 05:57:55;;;;;;;16.52;4.20;;;16.40;99.90;;;;;;4987514;28;20858;-69
2023/09/29 06:00:20;;;;;;;14.65;4.40;;;16.40;99.90;;;;;;5014123;28;20047;-69
2023/09/29 06:02:47;;;;;;;14.48;4.20;;;16.40;99.90;;;;;;5017661;28;20049;-68
2023/09/29 06:05:13;;;;;;;17.13;4.20;;;16.40;99.90;;;;;;5017040;28;20049;-69
2023/09/29 06:07:40;;;;;;;16.10;3.92;;;16.40;99.90;;;;;;5004500;28;20037;-69
2023/09/29 06:10:07;;;;;;;15.60;3.97;;;16.40;99.90;;;;;;4994546;28;20152;-70
2023/09/29 06:12:33;;;;;;;16.48;4.65;;;16.40;99.90;;;;;;5018576;28;20208;-70
2023/09/29 06:14:59;;;;;;;12.90;4.65;;;16.40;99.90;;;;;;5002596;28;20124;-70
2023/09/29 06:17:25;;;;;;;13.27;4.00;;;16.40;99.90;;;;;;5019317;28;20537;-69
2023/09/29 06:19:51;;;;;;;12.63;4.20;;;16.50;99.90;;;;;;5020025;28;20048;-69
2023/09/29 06:22:20;;;;;;;15.30;4.38;;;16.50;99.90;;;;;;5006410;28;20057;-69
2023/09/29 06:24:46;;;;;;;13.82;4.07;;;16.50;99.90;;;;;;4997050;28;20111;-70
2023/09/29 06:27:11;;;;;;;18.77;5.15;;;16.50;99.90;;;;;;5006028;28;20447;-70
2023/09/29 06:29:40;;;;;;;17.35;4.47;;;16.50;99.90;;;;;;5005260;28;20431;-70
2023/09/29 06:32:08;;;;;;;18.70;4.65;;;16.50;99.90;;;;;;5021373;28;20391;-70
2023/09/29 06:34:35;;;;;;;14.85;4.55;;;16.50;99.90;;;;;;5025169;28;20053;-70
2023/09/29 06:37:01;;;;;;;17.17;4.35;;;16.50;99.90;;;;;;5025719;28;20099;-69
2023/09/29 06:39:27;;;;;;;14.13;4.57;;;16.50;99.90;;;;;;5007549;28;20053;-70
2023/09/29 06:41:53;;;;;;;22.80;5.55;;;16.60;99.90;;;;;;5004149;28;20034;-69
2023/09/29 06:44:18;;;;;;;10.05;4.18;;;16.60;99.90;;;;;;5021632;28;20545;-70
2023/09/29 06:46:44;;;;;;;14.65;5.10;;;16.60;99.90;;;;;;5027509;28;20133;-69
2023/09/29 06:49:10;;;;;;;15.45;4.18;;;16.60;99.90;;;;;;5005303;28;20425;-70
2023/09/29 06:51:36;;;;;;;17.02;4.95;;;16.60;99.90;;;;;;5015016;28;20162;-69
2023/09/29 06:54:02;;;;;;;16.00;5.32;;;16.60;99.90;;;;;;5012490;28;20041;-70
2023/09/29 06:56:28;;;;;;;20.13;4.30;;;16.70;99.90;;;;;;5019259;28;20483;-69
2023/09/29 06:58:57;;;;;;;13.32;4.22;;;16.70;99.90;;;;;;5021920;28;20431;-69
2023/09/29 07:01:26;;;;;;;15.73;4.82;;;16.70;99.90;;;;;;5022180;28;20414;-70
2023/09/29 07:03:52;;;;;;;16.92;5.18;;;16.70;99.90;;;;;;5025207;28;20045;-70
2023/09/29 07:06:18;;;;;;;13.25;4.22;;;16.80;99.90;;;;;;5009914;28;20084;-70
2023/09/29 07:08:45;;;;;;;15.52;4.53;;;16.70;99.90;;;;;;5024511;28;20084;-70
2023/09/29 07:11:11;;;;;;;13.30;4.40;;;16.80;99.90;;;;;;5025748;28;20416;-69
2023/09/29 07:13:37;;;;;;;17.20;4.75;;;16.80;99.90;;;;;;5025197;28;20502;-69
2023/09/29 07:16:03;;;;;;;16.17;4.53;;;16.90;99.90;;;;;;5023779;28;20132;-69
2023/09/29 07:18:29;;;;;;;20.58;5.38;;;16.90;99.90;;;;;;5027644;28;20053;-69
2023/09/29 07:20:57;;;;;;;15.40;4.50;;;16.90;99.90;;;;;;5008843;28;20501;-70
2023/09/29 07:23:23;;;;;;;16.05;4.40;;;16.90;99.90;;;;;;5007673;28;20048;-69
2023/09/29 07:25:52;;;;;;;11.57;4.05;;;17.00;99.90;;;;;;5007521;28;20139;-69
2023/09/29 07:28:17;;;;;;;15.55;4.38;;;17.00;99.90;;;;;;5022252;28;20499;-69
2023/09/29 07:30:44;;;;;;;11.07;4.53;;;17.00;99.90;;;;;;5008089;28;20053;-69
2023/09/29 07:33:10;;;;;;;14.15;4.30;;;17.10;99.90;;;;;;5007884;28;20045;-69
2023/09/29 07:35:39;;;;;;;13.02;4.60;;;17.10;99.90;;;;;;5007076;28;20053;-69
2023/09/29 07:38:06;;;;;;;14.18;4.30;;;17.20;99.90;;;;;;5022283;28;20391;-69
2023/09/29 07:40:35;;;;;;;14.40;4.57;;;17.20;99.90;;;;;;5022868;28;20044;-69
2023/09/29 07:43:01;;;;;;;8.75;3.60;;;17.30;99.90;;;;;;5017691;28;20057;-69
2023/09/29 07:45:27;;;;;;;12.35;4.38;;;17.20;99.90;;;;;;5013552;28;20053;-69
2023/09/29 07:47:53;;;;;;;12.82;3.50;;;17.30;99.90;;;;;;5029713;28;20057;-69
2023/09/29 07:50:19;;;;;;;10.90;4.25;;;17.30;99.90;;;;;;5006179;28;20060;-70
2023/09/29 07:52:45;;;;;;;9.63;4.05;;;17.40;99.90;;;;;;4997619;28;20507;-70
2023/09/29 07:55:11;;;;;;;14.82;4.18;;;17.50;99.90;;;;;;5008949;28;20115;-69
2023/09/29 07:57:37;;;;;;;9.88;3.80;;;17.60;99.90;;;;;;5023518;28;20034;-69
2023/09/29 08:00:10;;;;;;;11.40;4.15;;;17.60;99.90;;;;;;5010607;28;20046;-70
2023/09/29 08:02:36;;;;;;;9.70;3.72;;;17.70;99.90;;;;;;5016692;28;20061;-70
2023/09/29 08:05:02;;;;;;;12.38;3.50;;;17.80;99.90;;;;;;4995821;28;20053;-70
2023/09/29 08:07:28;;;;;;;11.50;3.80;;;17.80;99.90;;;;;;5016062;28;20053;-70
2023/09/29 08:09:54;;;;;;;10.95;4.18;;;17.90;99.90;;;;;;5010113;28;20514;-70
2023/09/29 08:12:20;;;;;;;10.88;3.53;;;17.90;99.90;;;;;;5026497;28;20141;-70
2023/09/29 08:14:47;;;;;;;11.32;3.83;;;18.00;99.90;;;;;;5016910;28;20042;-70
2023/09/29 08:17:15;;;;;;;10.98;3.63;;;18.00;99.90;;;;;;5002963;28;20049;-70
2023/09/29 08:19:41;;;;;;;9.63;4.03;;;18.10;99.90;;;;;;4997527;28;20729;-69
2023/09/29 08:22:07;;;;;;;8.00;3.63;;;18.10;99.90;;;;;;5013579;28;20048;-70
2023/09/29 08:24:33;;;;;;;9.77;3.90;;;18.20;99.90;;;;;;5002735;28;20041;-70
2023/09/29 08:27:02;;;;;;;9.48;3.72;;;18.20;99.90;;;;;;5017679;28;20057;-69
2023/09/29 08:29:29;;;;;;;9.88;3.60;;;18.20;99.90;;;;;;4999675;28;20041;-70
2023/09/29 08:31:56;;;;;;;9.80;3.47;;;18.30;99.90;;;;;;5012410;28;20624;-70
2023/09/29 08:34:22;;;;;;;9.57;3.42;;;18.30;99.90;;;;;;4999134;28;20057;-69
2023/09/29 08:36:47;;;;;;;9.95;3.15;;;18.40;99.90;;;;;;5014161;28;20045;-69
2023/09/29 08:39:13;;;;;;;8.85;4.25;;;18.50;99.90;;;;;;5008066;28;20046;-69
2023/09/29 08:41:48;;;;;;;10.38;3.47;;;18.50;99.90;;;;;;5007143;28;20119;-70
2023/09/29 08:44:19;;;;;;;11.65;4.18;;;18.60;99.90;;;;;;5022610;28;20840;-69
2023/09/29 08:46:49;;;;;;;8.55;3.20;;;18.70;99.90;;;;;;5026602;28;20547;-69
2023/09/29 08:49:18;;;;;;;12.18;3.45;;;18.70;99.90;;;;;;5014693;28;20611;-69
2023/09/29 08:51:46;;;;;;;10.93;3.15;;;18.80;99.90;;;;;;5010047;28;20042;-70
2023/09/29 08:54:14;;;;;;;9.07;3.38;;;18.90;99.90;;;;;;4999909;28;20053;-69
2023/09/29 08:56:40;;;;;;;10.38;2.90;;;18.90;99.90;;;;;;5000502;28;20053;-69
2023/09/29 08:59:06;;;;;;;8.52;3.30;;;18.90;99.90;;;;;;4999431;28;20056;-71
2023/09/29 09:01:32;;;;;;;12.40;3.22;;;19.00;99.90;;;;;;5024041;28;20666;-70
2023/09/29 09:03:58;;;;;;;9.10;3.20;;;19.00;99.90;;;;;;4997879;28;20126;-70
2023/09/29 09:06:26;;;;;;;9.77;3.40;;;19.00;99.90;;;;;;5012850;28;20170;-70
2023/09/29 09:08:54;;;;;;;8.85;2.97;;;19.10;99.90;;;;;;5018928;28;20129;-71
2023/09/29 09:11:20;;;;;;;9.57;3.28;;;19.10;99.90;;;;;;5011963;28;20068;-70
2023/09/29 09:13:58;;;;;;;7.32;2.83;;;19.10;99.90;;;;;;5005756;28;20050;-70
2023/09/29 09:16:28;;;;;;;8.07;3.03;;;19.20;99.90;;;;;;5004926;28;20104;-69
2023/09/29 09:18:54;;;;;;;8.05;2.85;;;19.20;99.90;;;;;;5016598;28;20085;-69
2023/09/29 09:21:31;;;;;;;6.88;2.90;;;19.30;99.90;;;;;;4995970;28;20038;-70
2023/09/29 09:23:57;;;;;;;10.07;3.55;;;19.40;99.90;;;;;;5009113;28;20414;-69
2023/09/29 09:26:22;;;;;;;11.52;3.20;;;19.40;99.90;;;;;;5005921;28;20049;-69
2023/09/29 09:28:48;;;;;;;12.98;4.13;;;19.50;99.90;;;;;;5002495;28;20049;-69
2023/09/29 09:31:14;;;;;;;9.32;3.30;;;19.60;99.90;;;;;;5000571;28;20089;-69
2023/09/29 09:33:48;;;;;;;8.68;3.03;;;19.50;99.90;;;;;;5009276;28;20049;-68
2023/09/29 09:36:13;;;;;;;11.00;3.50;;;19.60;99.90;;;;;;5013676;28;20055;-67
2023/09/29 09:38:39;;;;;;;9.60;3.13;;;19.60;99.90;;;;;;5019729;28;20045;-67
2023/09/29 09:41:06;;;;;;;9.88;3.65;;;19.60;99.90;;;;;;5015583;28;20049;-67
2023/09/29 09:43:35;;;;;;;8.07;3.72;;;19.70;99.90;;;;;;5014304;28;20088;-67
2023/09/29 09:46:08;;;;;;;10.02;3.80;;;19.70;99.90;;;;;;5009543;28;20053;-66
2023/09/29 09:48:49;;;;;;;10.57;3.63;;;19.80;99.90;;;;;;5003061;28;20135;-66
2023/09/29 09:51:25;;;;;;;;;;;19.90;99.90;;;;;;5031326;28;20045;-66
2023/09/29 09:53:52;;;;;;;11.30;3.83;;;19.90;99.90;;;;;;5021913;28;19929;-66
2023/09/29 09:56:24;;;;;;;9.15;3.40;;;19.90;99.90;;;;;;5012241;28;20081;-67
2023/09/29 09:58:50;;;;;;;9.63;3.30;;;19.90;99.90;;;;;;4999212;28;20049;-66
2023/09/29 10:01:15;;;;;;;12.27;4.00;;;19.90;99.90;;;;;;5025513;28;20049;-67
2023/09/29 10:03:41;;;;;;;8.77;3.70;;;19.90;99.90;;;;;;5011400;28;20057;-67
2023/09/29 10:06:09;;;;;;;10.98;3.60;;;19.90;99.90;;;;;;5007566;28;20136;-67
2023/09/29 10:08:35;;;;;;;13.18;3.47;;;20.00;99.90;;;;;;5011545;28;20045;-67
2023/09/29 10:11:11;;;;;;;11.10;3.80;;;20.00;99.90;;;;;;5005022;28;20054;-69
2023/09/29 10:13:42;;;;;;;10.57;3.70;;;20.00;99.90;;;;;;5024399;28;20049;-69
2023/09/29 10:16:24;;;;;;;10.13;3.58;;;20.10;99.90;;;;;;5024478;28;20418;-70
2023/09/29 10:18:58;;;;;;;11.88;3.97;;;20.10;99.90;;;;;;5018366;28;20060;-69
2023/09/29 10:21:25;;;;;;;11.40;3.72;;;20.10;99.90;;;;;;5022389;28;20054;-69
2023/09/29 10:23:51;;;;;;;13.35;4.43;;;20.10;99.90;;;;;;5021842;28;20103;-69
2023/09/29 10:26:20;;;;;;;11.93;3.30;;;20.10;99.90;;;;;;5031091;28;20052;-70
2023/09/29 10:28:46;;;;;;;10.45;3.55;;;20.20;99.90;;;;;;5005086;28;20033;-69
2023/09/29 10:31:18;;;;;;;10.23;3.45;;;20.20;99.90;;;;;;5022375;28;20049;-70
2023/09/29 10:33:53;;;;;;;11.27;3.50;;;20.20;99.90;;;;;;5030223;28;20045;-70
2023/09/29 10:36:30;;;;;;;11.60;3.42;;;20.20;99.90;;;;;;5016067;28;20056;-70
2023/09/29 10:38:57;;;;;;;9.32;4.03;;;20.20;99.90;;;;;;5026086;28;20049;-69
2023/09/29 10:41:24;;;;;;;12.70;3.72;;;20.20;99.90;;;;;;5014482;28;20155;-69
2023/09/29 10:43:50;;;;;;;10.30;3.60;;;20.20;99.90;;;;;;4999292;28;20184;-69
2023/09/29 10:46:22;;;;;;;9.88;3.25;;;20.20;99.90;;;;;;5022539;28;20049;-69
2023/09/29 10:48:49;;;;;;;14.30;3.60;;;20.20;99.90;;;;;;5048608;28;20045;-69
2023/09/29 10:51:22;;;;;;;9.02;2.75;;;20.30;99.90;;;;;;4996917;28;20054;-70
2023/09/29 10:53:48;;;;;;;10.57;2.90;;;20.30;99.90;;;;;;5020446;28;20068;-69
2023/09/29 10:56:25;;;;;;;10.15;3.22;;;20.30;99.90;;;;;;5001977;28;20057;-70
2023/09/29 10:58:53;;;;;;;9.10;3.30;;;20.30;99.90;;;;;;5008453;28;20093;-70
2023/09/29 11:01:33;;;;;;;10.80;2.97;;;20.30;99.90;;;;;;5011485;28;20054;-70
2023/09/29 11:04:08;;;;;;;13.25;3.05;;;20.30;99.90;;;;;;5026832;28;20148;-70
2023/09/29 11:06:43;;;;;;;10.25;3.53;;;20.30;99.90;;;;;;5003455;28;20081;-70
2023/09/29 11:09:15;;;;;;;10.35;3.42;;;20.20;99.90;;;;;;5013749;28;20100;-70
2023/09/29 11:11:41;;;;;;;12.35;3.17;;;20.20;99.90;;;;;;4997262;28;20068;-70
2023/09/29 11:14:07;;;;;;;9.15;3.28;;;20.30;99.90;;;;;;5036817;28;20057;-70
2023/09/29 11:16:33;;;;;;;8.48;3.30;;;20.20;99.90;;;;;;5022139;28;20761;-70
2023/09/29 11:19:12;;;;;;;9.98;3.35;;;20.20;99.90;;;;;;5008692;28;20064;-70
2023/09/29 11:21:40;;;;;;;9.45;3.03;;;20.20;99.90;;;;;;5003675;28;20124;-67
2023/09/29 11:24:09;;;;;;;9.05;3.20;;;20.20;99.90;;;;;;5044212;28;20060;-67
2023/09/29 11:26:46;;;;;;;7.75;3.00;;;20.20;99.90;;;;;;5014707;28;20049;-67
2023/09/29 11:29:27;;;;;;;11.95;3.50;;;20.10;99.90;;;;;;5024115;28;20065;-67
2023/09/29 11:31:54;;;;;;;10.85;3.85;;;20.10;99.90;;;;;;5031445;28;20507;-67
2023/09/29 11:34:20;;;;;;;11.77;3.92;;;20.10;99.90;;;;;;4996948;28;20057;-67
2023/09/29 11:36:48;;;;;;;8.65;3.72;;;20.10;99.90;;;;;;5017264;28;20039;-67
2023/09/29 11:39:18;;;;;;;8.98;3.92;;;20.10;99.90;;;;;;5020184;28;20128;-67
2023/09/29 11:41:45;;;;;;;10.23;4.13;;;20.00;99.90;;;;;;4998321;28;20631;-67
2023/09/29 11:44:15;;;;;;;9.80;4.43;;;20.00;99.90;;;;;;5011531;28;20092;-67
2023/09/29 11:46:41;;;;;;;9.00;4.33;;;20.10;99.90;;;;;;5026160;28;20560;-67
2023/09/29 11:49:07;;;;;;;9.85;4.32;;;20.10;99.90;;;;;;4997704;28;20049;-67
2023/09/29 11:51:34;;;;;;;9.23;4.38;;;20.10;99.90;;;;;;5011957;28;20049;-67
2023/09/29 11:54:01;;;;;;;9.60;4.40;;;20.10;99.90;;;;;;5011353;28;20077;-67
2023/09/29 11:56:26;;;;;;;13.63;4.88;;;20.10;99.90;;;;;;5009927;28;20070;-67
2023/09/29 11:58:53;;;;;;;11.65;4.95;;;20.10;99.90;;;;;;4996088;28;20072;-67
2023/09/29 12:01:19;;;;;;;10.02;4.50;;;20.10;99.90;;;;;;5015453;28;20045;-67
2023/09/29 12:03:45;;;;;;;12.00;4.97;;;20.00;99.90;;;;;;4996083;28;20049;-67
2023/09/29 12:06:11;;;;;;;10.65;4.55;;;20.00;99.90;;;;;;5009080;28;20103;-68
2023/09/29 12:08:37;;;;;;;8.77;2.78;;;20.00;99.90;;;;;;4990844;28;20045;-68
2023/09/29 12:11:07;;;;;;;4.75;1.58;;;20.00;99.90;;;;;;4991783;28;20053;-67
2023/09/29 12:13:33;;;;;;;3.80;1.20;;;19.90;99.90;;;;;;5006179;28;20053;-67
2023/09/29 12:16:00;;;;;;;3.95;0.80;;;19.80;99.90;;;;;;5001862;28;20115;-67
2023/09/29 12:18:28;;;;;;;4.53;0.90;;;19.70;99.90;;;;;;4997531;28;20050;-67
2023/09/29 12:20:56;;;;;;;4.88;1.00;;;19.60;99.90;;;;;;5003346;28;20038;-67
2023/09/29 12:23:21;;;;;;;2.92;0.70;;;19.50;99.90;;;;;;5004091;28;20088;-67
2023/09/29 12:25:47;;;;;;;4.38;0.80;;;19.50;99.90;;;;;;4989741;28;20192;-67
2023/09/29 12:28:15;;;;;;;5.32;1.30;;;19.30;99.90;;;;;;4996622;28;20491;-67
2023/09/29 12:30:44;;;;;;;5.53;0.95;;;19.30;99.90;;;;;;4983281;28;20299;-66
2023/09/29 12:33:10;;;;;;;4.75;1.08;;;19.20;99.90;;;;;;5006933;28;20049;-67
2023/09/29 12:35:36;;;;;;;8.75;1.73;;;19.20;99.90;;;;;;4990062;28;20061;-67
2023/09/29 12:38:03;;;;;;;5.60;1.60;;;19.10;99.90;;;;;;4994324;28;20045;-66
2023/09/29 12:40:28;;;;;;;4.32;1.10;;;19.00;99.90;;;;;;4995675;28;20084;-66
2023/09/29 12:42:54;;;;;;;5.40;1.23;;;19.00;99.90;;;;;;4991320;28;20899;-66